sensor_id;sensor_type;location;lat;lon;timestamp;temperature;humidity
1277;DHT22;631;51.024;13.826;2023-04-01T00:01:26;11.30;99.90
1277;DHT22;631;51.024;13.826;2023-04-01T00:03:52;11.40;99.90
1277;DHT22;631;51.024;13.826;2023-04-01T00:06:19;11.30;99.90
1277;DHT22;631;51.024;13.826;2023-04-01T00:08:45;11.20;99.90
1277;DHT22;631;51.024;13.826;2023-04-01T00:11:11;11.20;99.90
1277;DHT22;631;51.024;13.826;2023-04-01T00:13:37;11.20;99.90
1277;DHT22;631;51.024;13.826;2023-04-01T00:16:03;11.10;99.90
1277;DHT22;631;51.024;13.826;2023-04-01T00:18:29;11.10;99.90
1277;DHT22;631;51.024;13.826;2023-04-01T00:20:55;11.00;99.90
1277;DHT22;631;51.024;13.826;2023-04-01T00:23:21;10.80;99.90
1277;DHT22;631;51.024;13.826;2023-04-01T00:25:47;10.70;99.90
1277;DHT22;631;51.024;13.826;2023-04-01T00:28:14;10.70;99.90
1277;DHT22;631;51.024;13.826;2023-04-01T00:30:40;10.80;99.90
1277;DHT22;631;51.024;13.826;2023-04-01T00:33:06;10.80;99.90
1277;DHT22;631;51.024;13.826;2023-04-01T00:35:32;10.80;99.90
1277;DHT22;631;51.024;13.826;2023-04-01T00:37:58;10.80;99.90
1277;DHT22;631;51.024;13.826;2023-04-01T00:40:30;10.80;99.90
1277;DHT22;631;51.024;13.826;2023-04-01T00:42:57;10.80;99.90
1277;DHT22;631;51.024;13.826;2023-04-01T00:47:51;10.90;99.90
1277;DHT22;631;51.024;13.826;2023-04-01T00:50:16;10.80;99.90
1277;DHT22;631;51.024;13.826;2023-04-01T00:52:42;10.90;99.90
1277;DHT22;631;51.024;13.826;2023-04-01T00:55:09;10.90;99.90
1277;DHT22;631;51.024;13.826;2023-04-01T00:57:37;10.90;99.90
1277;DHT22;631;51.024;13.826;2023-04-01T01:00:05;11.00;99.90
1277;DHT22;631;51.024;13.826;2023-04-01T01:02:33;10.90;99.90
1277;DHT22;631;51.024;13.826;2023-04-01T01:04:59;11.00;99.90
1277;DHT22;631;51.024;13.826;2023-04-01T01:12:45;10.80;99.90
1277;DHT22;631;51.024;13.826;2023-04-01T01:15:30;10.80;99.90
1277;DHT22;631;51.024;13.826;2023-04-01T01:26:46;10.80;99.90
1277;DHT22;631;51.024;13.826;2023-04-01T01:37:20;10.90;99.90
1277;DHT22;631;51.024;13.826;2023-04-01T01:39:51;10.90;99.90
1277;DHT22;631;51.024;13.826;2023-04-01T01:42:20;11.00;99.90
1277;DHT22;631;51.024;13.826;2023-04-01T01:44:49;11.00;99.90
1277;DHT22;631;51.024;13.826;2023-04-01T01:47:16;11.10;99.90
1277;DHT22;631;51.024;13.826;2023-04-01T01:49:43;11.00;99.90
1277;DHT22;631;51.024;13.826;2023-04-01T01:52:11;11.10;99.90
1277;DHT22;631;51.024;13.826;2023-04-01T01:54:46;10.90;99.90
1277;DHT22;631;51.024;13.826;2023-04-01T01:57:12;10.90;99.90
1277;DHT22;631;51.024;13.826;2023-04-01T01:59:38;10.90;99.90
1277;DHT22;631;51.024;13.826;2023-04-01T02:02:06;10.90;99.90
1277;DHT22;631;51.024;13.826;2023-04-01T02:04:39;11.00;99.90
1277;DHT22;631;51.024;13.826;2023-04-01T02:07:14;11.00;99.90
1277;DHT22;631;51.024;13.826;2023-04-01T02:09:41;11.00;99.90
1277;DHT22;631;51.024;13.826;2023-04-01T02:12:10;11.00;99.90
1277;DHT22;631;51.024;13.826;2023-04-01T02:14:55;11.00;99.90
1277;DHT22;631;51.024;13.826;2023-04-01T02:17:27;11.00;99.90
1277;DHT22;631;51.024;13.826;2023-04-01T02:20:14;11.10;99.90
1277;DHT22;631;51.024;13.826;2023-04-01T02:22:44;11.10;99.90
1277;DHT22;631;51.024;13.826;2023-04-01T02:25:14;11.00;99.90
1277;DHT22;631;51.024;13.826;2023-04-01T02:27:43;11.00;99.90
1277;DHT22;631;51.024;13.826;2023-04-01T02:30:10;10.90;99.90
1277;DHT22;631;51.024;13.826;2023-04-01T02:32:38;11.00;99.90
1277;DHT22;631;51.024;13.826;2023-04-01T02:35:07;11.00;99.90
1277;DHT22;631;51.024;13.826;2023-04-01T02:37:33;11.00;99.90
1277;DHT22;631;51.024;13.826;2023-04-01T02:40:01;11.10;99.90
1277;DHT22;631;51.024;13.826;2023-04-01T02:42:27;11.00;99.90
1277;DHT22;631;51.024;13.826;2023-04-01T02:44:53;11.10;99.90
1277;DHT22;631;51.024;13.826;2023-04-01T02:47:18;11.10;99.90
1277;DHT22;631;51.024;13.826;2023-04-01T02:49:44;11.10;99.90
1277;DHT22;631;51.024;13.826;2023-04-01T02:52:10;11.10;99.90
1277;DHT22;631;51.024;13.826;2023-04-01T02:54:35;11.10;99.90
1277;DHT22;631;51.024;13.826;2023-04-01T02:57:01;11.20;99.90
1277;DHT22;631;51.024;13.826;2023-04-01T02:59:29;11.10;99.90
1277;DHT22;631;51.024;13.826;2023-04-01T03:01:54;11.10;99.90
1277;DHT22;631;51.024;13.826;2023-04-01T03:04:20;11.10;99.90
1277;DHT22;631;51.024;13.826;2023-04-01T03:06:46;11.10;99.90
1277;DHT22;631;51.024;13.826;2023-04-01T03:09:11;11.10;99.90
1277;DHT22;631;51.024;13.826;2023-04-01T03:11:37;11.10;99.90
1277;DHT22;631;51.024;13.826;2023-04-01T03:14:03;11.20;99.90
1277;DHT22;631;51.024;13.826;2023-04-01T03:16:28;11.10;99.90
1277;DHT22;631;51.024;13.826;2023-04-01T03:18:54;11.10;99.90
1277;DHT22;631;51.024;13.826;2023-04-01T03:21:23;11.10;99.90
1277;DHT22;631;51.024;13.826;2023-04-01T03:23:49;11.10;99.90
1277;DHT22;631;51.024;13.826;2023-04-01T03:26:15;11.20;99.90
1277;DHT22;631;51.024;13.826;2023-04-01T03:28:42;11.10;99.90
1277;DHT22;631;51.024;13.826;2023-04-01T03:31:08;11.10;99.90
1277;DHT22;631;51.024;13.826;2023-04-01T03:33:34;11.20;99.90
1277;DHT22;631;51.024;13.826;2023-04-01T03:36:00;11.20;99.90
1277;DHT22;631;51.024;13.826;2023-04-01T03:38:25;11.10;99.90
1277;DHT22;631;51.024;13.826;2023-04-01T03:40:51;11.10;99.90
1277;DHT22;631;51.024;13.826;2023-04-01T03:43:17;11.10;99.90
1277;DHT22;631;51.024;13.826;2023-04-01T03:45:47;11.10;99.90
1277;DHT22;631;51.024;13.826;2023-04-01T03:48:13;11.20;99.90
1277;DHT22;631;51.024;13.826;2023-04-01T03:50:39;11.10;99.90
1277;DHT22;631;51.024;13.826;2023-04-01T03:53:05;11.10;99.90
1277;DHT22;631;51.024;13.826;2023-04-01T03:55:31;11.10;99.90
1277;DHT22;631;51.024;13.826;2023-04-01T03:57:57;11.10;99.90
1277;DHT22;631;51.024;13.826;2023-04-01T04:00:22;11.10;99.90
1277;DHT22;631;51.024;13.826;2023-04-01T04:02:48;11.10;99.90
1277;DHT22;631;51.024;13.826;2023-04-01T04:05:14;11.10;99.90
1277;DHT22;631;51.024;13.826;2023-04-01T04:07:39;11.10;99.90
1277;DHT22;631;51.024;13.826;2023-04-01T04:10:06;11.10;99.90
1277;DHT22;631;51.024;13.826;2023-04-01T04:12:32;11.10;99.90
1277;DHT22;631;51.024;13.826;2023-04-01T04:14:57;11.10;99.90
1277;DHT22;631;51.024;13.826;2023-04-01T04:17:23;11.10;99.90
1277;DHT22;631;51.024;13.826;2023-04-01T04:19:49;11.10;99.90
1277;DHT22;631;51.024;13.826;2023-04-01T04:22:14;11.10;99.90
1277;DHT22;631;51.024;13.826;2023-04-01T04:24:40;11.10;99.90
1277;DHT22;631;51.024;13.826;2023-04-01T04:27:06;11.10;99.90
1277;DHT22;631;51.024;13.826;2023-04-01T04:29:31;11.10;99.90
1277;DHT22;631;51.024;13.826;2023-04-01T04:31:57;11.10;99.90
1277;DHT22;631;51.024;13.826;2023-04-01T04:34:23;11.10;99.90
1277;DHT22;631;51.024;13.826;2023-04-01T04:36:48;11.10;99.90
1277;DHT22;631;51.024;13.826;2023-04-01T04:39:15;11.10;99.90
1277;DHT22;631;51.024;13.826;2023-04-01T04:41:41;11.10;99.90
1277;DHT22;631;51.024;13.826;2023-04-01T04:44:07;11.10;99.90
1277;DHT22;631;51.024;13.826;2023-04-01T04:46:32;11.10;99.90
1277;DHT22;631;51.024;13.826;2023-04-01T04:48:58;11.10;99.90
1277;DHT22;631;51.024;13.826;2023-04-01T04:51:24;11.20;99.90
1277;DHT22;631;51.024;13.826;2023-04-01T04:53:50;11.20;99.90
1277;DHT22;631;51.024;13.826;2023-04-01T04:56:22;11.20;99.90
1277;DHT22;631;51.024;13.826;2023-04-01T04:58:50;11.20;99.90
1277;DHT22;631;51.024;13.826;2023-04-01T05:01:17;11.10;99.90
1277;DHT22;631;51.024;13.826;2023-04-01T05:03:43;11.20;99.90
1277;DHT22;631;51.024;13.826;2023-04-01T05:06:10;11.10;99.90
1277;DHT22;631;51.024;13.826;2023-04-01T05:08:37;11.10;99.90
1277;DHT22;631;51.024;13.826;2023-04-01T05:11:07;11.10;99.90
1277;DHT22;631;51.024;13.826;2023-04-01T05:13:35;11.10;99.90
1277;DHT22;631;51.024;13.826;2023-04-01T05:16:01;11.10;99.90
1277;DHT22;631;51.024;13.826;2023-04-01T05:18:27;11.20;99.90
1277;DHT22;631;51.024;13.826;2023-04-01T05:20:53;11.20;99.90
1277;DHT22;631;51.024;13.826;2023-04-01T05:23:20;11.30;99.90
1277;DHT22;631;51.024;13.826;2023-04-01T05:25:47;11.30;99.90
1277;DHT22;631;51.024;13.826;2023-04-01T05:28:13;11.20;99.90
1277;DHT22;631;51.024;13.826;2023-04-01T05:30:42;11.20;99.90
1277;DHT22;631;51.024;13.826;2023-04-01T05:33:09;11.20;99.90
1277;DHT22;631;51.024;13.826;2023-04-01T05:35:36;11.20;99.90
1277;DHT22;631;51.024;13.826;2023-04-01T05:38:02;11.20;99.90
1277;DHT22;631;51.024;13.826;2023-04-01T05:40:29;11.20;99.90
1277;DHT22;631;51.024;13.826;2023-04-01T05:42:54;11.20;99.90
1277;DHT22;631;51.024;13.826;2023-04-01T05:45:20;11.20;99.90
1277;DHT22;631;51.024;13.826;2023-04-01T05:47:46;11.30;99.90
1277;DHT22;631;51.024;13.826;2023-04-01T05:50:12;11.30;99.90
1277;DHT22;631;51.024;13.826;2023-04-01T05:52:38;11.20;99.90
1277;DHT22;631;51.024;13.826;2023-04-01T05:55:04;11.30;99.90
1277;DHT22;631;51.024;13.826;2023-04-01T05:57:31;11.30;99.90
1277;DHT22;631;51.024;13.826;2023-04-01T05:59:56;11.30;99.90
1277;DHT22;631;51.024;13.826;2023-04-01T06:02:22;11.30;99.90
1277;DHT22;631;51.024;13.826;2023-04-01T06:04:48;11.50;99.90
1277;DHT22;631;51.024;13.826;2023-04-01T06:07:16;11.40;99.90
1277;DHT22;631;51.024;13.826;2023-04-01T06:09:43;11.30;99.90
1277;DHT22;631;51.024;13.826;2023-04-01T06:21:10;11.30;99.90
1277;DHT22;631;51.024;13.826;2023-04-01T06:23:45;11.30;99.90
1277;DHT22;631;51.024;13.826;2023-04-01T06:26:30;11.20;99.90
1277;DHT22;631;51.024;13.826;2023-04-01T06:29:24;11.10;99.90
1277;DHT22;631;51.024;13.826;2023-04-01T06:32:17;10.90;99.90
1277;DHT22;631;51.024;13.826;2023-04-01T06:49:37;11.10;99.90
1277;DHT22;631;51.024;13.826;2023-04-01T06:52:25;11.20;99.90
1277;DHT22;631;51.024;13.826;2023-04-01T06:54:58;11.20;99.90
1277;DHT22;631;51.024;13.826;2023-04-01T06:57:39;11.30;99.90
1277;DHT22;631;51.024;13.826;2023-04-01T07:00:29;11.40;99.90
1277;DHT22;631;51.024;13.826;2023-04-01T07:03:05;11.50;99.90
1277;DHT22;631;51.024;13.826;2023-04-01T07:05:33;11.70;99.90
1277;DHT22;631;51.024;13.826;2023-04-01T07:08:02;11.70;99.90
1277;DHT22;631;51.024;13.826;2023-04-01T07:10:54;11.80;99.90
1277;DHT22;631;51.024;13.826;2023-04-01T07:16:39;11.90;99.90
1277;DHT22;631;51.024;13.826;2023-04-01T07:21:48;12.20;99.90
1277;DHT22;631;51.024;13.826;2023-04-01T07:24:27;12.20;99.90
1277;DHT22;631;51.024;13.826;2023-04-01T07:26:56;12.30;99.90
1277;DHT22;631;51.024;13.826;2023-04-01T07:29:23;12.30;99.90
1277;DHT22;631;51.024;13.826;2023-04-01T07:40:32;12.30;99.90
1277;DHT22;631;51.024;13.826;2023-04-01T07:43:19;12.30;99.90
1277;DHT22;631;51.024;13.826;2023-04-01T07:46:14;12.30;99.90
1277;DHT22;631;51.024;13.826;2023-04-01T07:51:29;12.40;99.90
1277;DHT22;631;51.024;13.826;2023-04-01T07:56:55;12.40;99.90
1277;DHT22;631;51.024;13.826;2023-04-01T08:05:25;12.50;99.90
1277;DHT22;631;51.024;13.826;2023-04-01T08:16:13;12.50;99.90
1277;DHT22;631;51.024;13.826;2023-04-01T08:21:28;12.80;99.90
1277;DHT22;631;51.024;13.826;2023-04-01T08:24:16;12.90;99.90
1277;DHT22;631;51.024;13.826;2023-04-01T08:26:48;13.10;99.90
1277;DHT22;631;51.024;13.826;2023-04-01T08:29:19;13.40;99.90
1277;DHT22;631;51.024;13.826;2023-04-01T08:32:00;13.40;99.90
1277;DHT22;631;51.024;13.826;2023-04-01T08:34:34;13.50;99.90
1277;DHT22;631;51.024;13.826;2023-04-01T08:37:05;13.60;99.90
1277;DHT22;631;51.024;13.826;2023-04-01T08:39:39;13.60;99.90
1277;DHT22;631;51.024;13.826;2023-04-01T08:50:44;13.20;99.60
1277;DHT22;631;51.024;13.826;2023-04-01T08:56:17;13.20;99.90
1277;DHT22;631;51.024;13.826;2023-04-01T09:29:17;13.20;99.90
1277;DHT22;631;51.024;13.826;2023-04-01T09:45:35;13.70;98.90
1277;DHT22;631;51.024;13.826;2023-04-01T09:51:01;13.70;97.80
1277;DHT22;631;51.024;13.826;2023-04-01T09:53:36;13.80;98.30
1277;DHT22;631;51.024;13.826;2023-04-01T09:56:19;13.70;98.00
1277;DHT22;631;51.024;13.826;2023-04-01T10:04:26;14.10;96.40
1277;DHT22;631;51.024;13.826;2023-04-01T10:15:20;13.40;96.90
1277;DHT22;631;51.024;13.826;2023-04-01T10:17:54;13.50;97.50
1277;DHT22;631;51.024;13.826;2023-04-01T10:20:38;13.60;97.70
1277;DHT22;631;51.024;13.826;2023-04-01T10:37:42;13.70;98.40
1277;DHT22;631;51.024;13.826;2023-04-01T10:43:27;13.50;98.70
1277;DHT22;631;51.024;13.826;2023-04-01T11:00:16;13.80;98.70
1277;DHT22;631;51.024;13.826;2023-04-01T11:13:46;15.50;94.90
1277;DHT22;631;51.024;13.826;2023-04-01T11:27:11;17.80;90.10
1277;DHT22;631;51.024;13.826;2023-04-01T11:33:03;18.20;83.80
1277;DHT22;631;51.024;13.826;2023-04-01T11:35:48;19.00;84.00
1277;DHT22;631;51.024;13.826;2023-04-01T11:44:02;17.90;85.20
1277;DHT22;631;51.024;13.826;2023-04-01T11:46:45;17.30;86.20
1277;DHT22;631;51.024;13.826;2023-04-01T11:49:37;17.20;90.90
1277;DHT22;631;51.024;13.826;2023-04-01T11:57:47;16.90;88.60
1277;DHT22;631;51.024;13.826;2023-04-01T12:12:18;18.30;85.40
1277;DHT22;631;51.024;13.826;2023-04-01T12:23:14;19.20;82.60
1277;DHT22;631;51.024;13.826;2023-04-01T12:50:27;16.70;92.20
1277;DHT22;631;51.024;13.826;2023-04-01T12:53:28;16.10;95.90
1277;DHT22;631;51.024;13.826;2023-04-01T12:56:02;15.60;99.10
1277;DHT22;631;51.024;13.826;2023-04-01T13:15:25;14.70;99.90
1277;DHT22;631;51.024;13.826;2023-04-01T13:28:32;17.00;99.90
1277;DHT22;631;51.024;13.826;2023-04-01T13:31:45;17.30;99.90
1277;DHT22;631;51.024;13.826;2023-04-01T13:34:30;17.40;98.00
1277;DHT22;631;51.024;13.826;2023-04-01T13:37:29;17.50;97.20
1277;DHT22;631;51.024;13.826;2023-04-01T13:43:19;17.30;97.60
1277;DHT22;631;51.024;13.826;2023-04-01T13:46:07;17.50;97.40
1277;DHT22;631;51.024;13.826;2023-04-01T14:00:32;17.80;94.60
1277;DHT22;631;51.024;13.826;2023-04-01T14:14:19;17.70;91.80
1277;DHT22;631;51.024;13.826;2023-04-01T14:16:58;17.70;88.40
1277;DHT22;631;51.024;13.826;2023-04-01T14:23:19;17.30;80.40
1277;DHT22;631;51.024;13.826;2023-04-01T14:26:01;16.80;81.80
1277;DHT22;631;51.024;13.826;2023-04-01T14:29:09;16.50;86.70
1277;DHT22;631;51.024;13.826;2023-04-01T14:34:48;15.80;91.70
1277;DHT22;631;51.024;13.826;2023-04-01T14:40:20;15.40;93.50
1277;DHT22;631;51.024;13.826;2023-04-01T14:45:39;15.10;99.90
1277;DHT22;631;51.024;13.826;2023-04-01T14:51:31;15.30;99.90
1277;DHT22;631;51.024;13.826;2023-04-01T14:54:05;15.60;99.90
1277;DHT22;631;51.024;13.826;2023-04-01T14:56:40;15.70;99.90
1277;DHT22;631;51.024;13.826;2023-04-01T14:59:14;15.80;99.90
1277;DHT22;631;51.024;13.826;2023-04-01T15:04:54;15.80;99.90
1277;DHT22;631;51.024;13.826;2023-04-01T15:13:13;15.80;94.10
1277;DHT22;631;51.024;13.826;2023-04-01T15:16:05;15.70;94.00
1277;DHT22;631;51.024;13.826;2023-04-01T15:26:51;15.50;91.60
1277;DHT22;631;51.024;13.826;2023-04-01T15:32:19;15.40;91.80
1277;DHT22;631;51.024;13.826;2023-04-01T15:38:31;15.20;92.50
1277;DHT22;631;51.024;13.826;2023-04-01T15:41:16;15.20;93.80
1277;DHT22;631;51.024;13.826;2023-04-01T15:43:49;15.30;94.30
1277;DHT22;631;51.024;13.826;2023-04-01T15:46:36;15.30;93.00
1277;DHT22;631;51.024;13.826;2023-04-01T15:52:05;15.10;94.10
1277;DHT22;631;51.024;13.826;2023-04-01T15:57:39;14.90;95.30
1277;DHT22;631;51.024;13.826;2023-04-01T16:00:23;14.90;96.20
1277;DHT22;631;51.024;13.826;2023-04-01T16:06:10;14.80;96.40
1277;DHT22;631;51.024;13.826;2023-04-01T16:11:37;14.60;98.10
1277;DHT22;631;51.024;13.826;2023-04-01T16:23:03;14.40;98.50
1277;DHT22;631;51.024;13.826;2023-04-01T16:28:18;14.20;98.30
1277;DHT22;631;51.024;13.826;2023-04-01T16:30:58;14.10;97.50
1277;DHT22;631;51.024;13.826;2023-04-01T16:33:37;14.10;98.70
1277;DHT22;631;51.024;13.826;2023-04-01T16:36:22;14.00;97.80
1277;DHT22;631;51.024;13.826;2023-04-01T16:38:51;13.90;98.10
1277;DHT22;631;51.024;13.826;2023-04-01T16:41:24;13.90;98.60
1277;DHT22;631;51.024;13.826;2023-04-01T16:44:19;13.80;98.30
1277;DHT22;631;51.024;13.826;2023-04-01T16:47:08;13.80;97.90
1277;DHT22;631;51.024;13.826;2023-04-01T16:49:51;13.70;99.20
1277;DHT22;631;51.024;13.826;2023-04-01T16:58:07;13.40;99.90
1277;DHT22;631;51.024;13.826;2023-04-01T17:00:44;13.30;99.90
1277;DHT22;631;51.024;13.826;2023-04-01T17:11:32;13.00;99.90
1277;DHT22;631;51.024;13.826;2023-04-01T17:24:50;12.70;99.90
1277;DHT22;631;51.024;13.826;2023-04-01T17:35:59;12.30;99.90
1277;DHT22;631;51.024;13.826;2023-04-01T17:46:49;11.90;99.90
1277;DHT22;631;51.024;13.826;2023-04-01T17:49:39;11.80;99.90
1277;DHT22;631;51.024;13.826;2023-04-01T17:55:15;11.70;99.90
1277;DHT22;631;51.024;13.826;2023-04-01T17:58:01;11.70;99.90
1277;DHT22;631;51.024;13.826;2023-04-01T18:00:56;11.60;99.90
1277;DHT22;631;51.024;13.826;2023-04-01T18:09:07;11.40;99.90
1277;DHT22;631;51.024;13.826;2023-04-01T18:14:13;11.30;99.90
1277;DHT22;631;51.024;13.826;2023-04-01T18:22:19;11.20;99.90
1277;DHT22;631;51.024;13.826;2023-04-01T18:25:10;11.10;99.90
1277;DHT22;631;51.024;13.826;2023-04-01T18:27:41;11.00;99.90
1277;DHT22;631;51.024;13.826;2023-04-01T18:38:38;10.80;99.90
1277;DHT22;631;51.024;13.826;2023-04-01T18:46:52;10.70;99.90
1277;DHT22;631;51.024;13.826;2023-04-01T19:02:50;10.50;99.90
1277;DHT22;631;51.024;13.826;2023-04-01T19:05:31;10.50;99.90
1277;DHT22;631;51.024;13.826;2023-04-01T19:08:25;10.40;99.90
1277;DHT22;631;51.024;13.826;2023-04-01T19:11:06;10.40;99.90
1277;DHT22;631;51.024;13.826;2023-04-01T19:27:50;10.30;99.90
1277;DHT22;631;51.024;13.826;2023-04-01T19:36:11;10.30;99.90
1277;DHT22;631;51.024;13.826;2023-04-01T19:38:43;10.30;99.90
1277;DHT22;631;51.024;13.826;2023-04-01T19:41:46;10.30;99.90
1277;DHT22;631;51.024;13.826;2023-04-01T19:47:11;10.30;99.90
1277;DHT22;631;51.024;13.826;2023-04-01T19:52:33;10.30;99.90
1277;DHT22;631;51.024;13.826;2023-04-01T20:00:47;10.30;99.90
1277;DHT22;631;51.024;13.826;2023-04-01T20:03:15;10.30;99.90
1277;DHT22;631;51.024;13.826;2023-04-01T20:05:49;10.30;99.90
1277;DHT22;631;51.024;13.826;2023-04-01T20:08:40;10.30;99.90
1277;DHT22;631;51.024;13.826;2023-04-01T20:13:57;10.30;99.90
1277;DHT22;631;51.024;13.826;2023-04-01T20:16:40;10.30;99.90
1277;DHT22;631;51.024;13.826;2023-04-01T20:19:10;10.30;99.90
1277;DHT22;631;51.024;13.826;2023-04-01T20:21:42;10.30;99.90
1277;DHT22;631;51.024;13.826;2023-04-01T20:24:21;10.20;99.90
1277;DHT22;631;51.024;13.826;2023-04-01T20:26:58;10.20;99.90
1277;DHT22;631;51.024;13.826;2023-04-01T20:35:12;10.30;99.90
1277;DHT22;631;51.024;13.826;2023-04-01T20:40:33;10.30;99.90
1277;DHT22;631;51.024;13.826;2023-04-01T20:46:22;10.30;99.90
1277;DHT22;631;51.024;13.826;2023-04-01T20:51:52;10.40;99.90
1277;DHT22;631;51.024;13.826;2023-04-01T20:55:16;10.40;99.90
1277;DHT22;631;51.024;13.826;2023-04-01T20:57:32;10.30;99.90
1277;DHT22;631;51.024;13.826;2023-04-01T21:00:37;10.30;99.90
1277;DHT22;631;51.024;13.826;2023-04-01T21:12:17;10.30;99.90
1277;DHT22;631;51.024;13.826;2023-04-01T21:17:37;10.40;99.90
1277;DHT22;631;51.024;13.826;2023-04-01T21:28:21;10.40;99.90
1277;DHT22;631;51.024;13.826;2023-04-01T21:31:27;10.40;99.90
1277;DHT22;631;51.024;13.826;2023-04-01T21:37:12;10.40;99.90
1277;DHT22;631;51.024;13.826;2023-04-01T21:48:12;10.40;99.90
1277;DHT22;631;51.024;13.826;2023-04-01T21:51:21;10.40;99.90
1277;DHT22;631;51.024;13.826;2023-04-01T22:07:29;10.40;99.90
1277;DHT22;631;51.024;13.826;2023-04-01T22:12:46;10.40;99.90
1277;DHT22;631;51.024;13.826;2023-04-01T22:18:50;10.40;99.90
1277;DHT22;631;51.024;13.826;2023-04-01T22:24:34;10.40;99.90
1277;DHT22;631;51.024;13.826;2023-04-01T22:27:46;10.40;99.90
1277;DHT22;631;51.024;13.826;2023-04-01T22:32:48;10.30;99.90
1277;DHT22;631;51.024;13.826;2023-04-01T22:41:01;10.10;99.90
1277;DHT22;631;51.024;13.826;2023-04-01T22:43:39;10.00;99.90
1277;DHT22;631;51.024;13.826;2023-04-01T22:49:20;9.90;99.90
1277;DHT22;631;51.024;13.826;2023-04-01T22:51:56;9.80;99.90
1277;DHT22;631;51.024;13.826;2023-04-01T22:54:41;9.70;99.90
1277;DHT22;631;51.024;13.826;2023-04-01T22:57:28;9.70;99.90
1277;DHT22;631;51.024;13.826;2023-04-01T23:00:16;9.60;99.90
1277;DHT22;631;51.024;13.826;2023-04-01T23:06:00;9.50;99.90
1277;DHT22;631;51.024;13.826;2023-04-01T23:10:54;9.40;99.90
1277;DHT22;631;51.024;13.826;2023-04-01T23:13:52;9.30;99.90
1277;DHT22;631;51.024;13.826;2023-04-01T23:16:28;9.30;99.90
1277;DHT22;631;51.024;13.826;2023-04-01T23:19:07;9.20;99.90
1277;DHT22;631;51.024;13.826;2023-04-01T23:21:46;9.20;99.90
1277;DHT22;631;51.024;13.826;2023-04-01T23:24:35;9.10;99.90
1277;DHT22;631;51.024;13.826;2023-04-01T23:27:11;9.10;99.90
1277;DHT22;631;51.024;13.826;2023-04-01T23:29:39;9.10;99.90
1277;DHT22;631;51.024;13.826;2023-04-01T23:32:19;9.10;99.90
1277;DHT22;631;51.024;13.826;2023-04-01T23:34:53;9.10;99.90
1277;DHT22;631;51.024;13.826;2023-04-01T23:37:21;9.00;99.90
1277;DHT22;631;51.024;13.826;2023-04-01T23:39:50;9.00;99.90
1277;DHT22;631;51.024;13.826;2023-04-01T23:44:50;9.00;99.90
1277;DHT22;631;51.024;13.826;2023-04-01T23:47:43;9.00;99.90
1277;DHT22;631;51.024;13.826;2023-04-01T23:50:14;9.00;99.90
1277;DHT22;631;51.024;13.826;2023-04-01T23:52:59;8.90;99.90
1277;DHT22;631;51.024;13.826;2023-04-01T23:55:33;8.90;99.90
